sensor_id;sensor_type;location;lat;lon;timestamp;P1;P4;P2;P0;N10;N4;N25;N1;N05;TS
82350;SPS30;71951;39.366;22.950;2023-08-21T00:00:38;11;;11;;;;;;;
82350;SPS30;71951;39.366;22.950;2023-08-21T00:04:04;10;;10;;;;;;;
82350;SPS30;71951;39.366;22.950;2023-08-21T00:07:31;10;;10;;;;;;;
82350;SPS30;71951;39.366;22.950;2023-08-21T00:10:58;11;;11;;;;;;;
82350;SPS30;71951;39.366;22.950;2023-08-21T00:14:24;11;;11;;;;;;;
82350;SPS30;71951;39.366;22.950;2023-08-21T00:17:51;10;;10;;;;;;;
82350;SPS30;71951;39.366;22.950;2023-08-21T00:21:18;10;;10;;;;;;;
82350;SPS30;71951;39.366;22.950;2023-08-21T00:24:44;11;;11;;;;;;;
82350;SPS30;71951;39.366;22.950;2023-08-21T00:28:11;11;;11;;;;;;;
82350;SPS30;71951;39.366;22.950;2023-08-21T00:31:37;11;;11;;;;;;;
82350;SPS30;71951;39.366;22.950;2023-08-21T00:35:04;10;;10;;;;;;;
82350;SPS30;71951;39.366;22.950;2023-08-21T00:38:31;10;;10;;;;;;;
82350;SPS30;71951;39.366;22.950;2023-08-21T00:41:57;10;;10;;;;;;;
82350;SPS30;71951;39.366;22.950;2023-08-21T00:45:24;10;;10;;;;;;;
82350;SPS30;71951;39.366;22.950;2023-08-21T00:48:51;10;;10;;;;;;;
82350;SPS30;71951;39.366;22.950;2023-08-21T00:52:18;10;;10;;;;;;;
82350;SPS30;71951;39.366;22.950;2023-08-21T00:55:44;11;;11;;;;;;;
82350;SPS30;71951;39.366;22.950;2023-08-21T00:59:11;10;;10;;;;;;;
82350;SPS30;71951;39.366;22.950;2023-08-21T01:02:38;10;;10;;;;;;;
82350;SPS30;71951;39.366;22.950;2023-08-21T01:06:04;9;;9;;;;;;;
82350;SPS30;71951;39.366;22.950;2023-08-21T01:09:33;10;;10;;;;;;;
82350;SPS30;71951;39.366;22.950;2023-08-21T01:13:06;10;;10;;;;;;;
82350;SPS30;71951;39.366;22.950;2023-08-21T01:16:40;10;;10;;;;;;;
82350;SPS30;71951;39.366;22.950;2023-08-21T01:20:08;9;;9;;;;;;;
82350;SPS30;71951;39.366;22.950;2023-08-21T01:23:35;10;;10;;;;;;;
82350;SPS30;71951;39.366;22.950;2023-08-21T01:27:02;11;;11;;;;;;;
82350;SPS30;71951;39.366;22.950;2023-08-21T01:30:29;10;;10;;;;;;;
82350;SPS30;71951;39.366;22.950;2023-08-21T01:33:59;9;;9;;;;;;;
82350;SPS30;71951;39.366;22.950;2023-08-21T01:37:30;9;;9;;;;;;;
82350;SPS30;71951;39.366;22.950;2023-08-21T01:40:57;10;;10;;;;;;;
82350;SPS30;71951;39.366;22.950;2023-08-21T01:44:23;9;;9;;;;;;;
82350;SPS30;71951;39.366;22.950;2023-08-21T01:47:50;10;;9;;;;;;;
82350;SPS30;71951;39.366;22.950;2023-08-21T01:51:16;9;;9;;;;;;;
82350;SPS30;71951;39.366;22.950;2023-08-21T01:54:43;10;;10;;;;;;;
82350;SPS30;71951;39.366;22.950;2023-08-21T01:58:10;8;;8;;;;;;;
82350;SPS30;71951;39.366;22.950;2023-08-21T02:01:36;9;;9;;;;;;;
82350;SPS30;71951;39.366;22.950;2023-08-21T02:05:03;11;;11;;;;;;;
82350;SPS30;71951;39.366;22.950;2023-08-21T02:08:31;10;;10;;;;;;;
82350;SPS30;71951;39.366;22.950;2023-08-21T02:11:58;10;;10;;;;;;;
82350;SPS30;71951;39.366;22.950;2023-08-21T02:15:24;10;;10;;;;;;;
82350;SPS30;71951;39.366;22.950;2023-08-21T02:18:50;10;;10;;;;;;;
82350;SPS30;71951;39.366;22.950;2023-08-21T02:22:17;10;;10;;;;;;;
82350;SPS30;71951;39.366;22.950;2023-08-21T02:25:43;11;;11;;;;;;;
82350;SPS30;71951;39.366;22.950;2023-08-21T02:29:10;10;;10;;;;;;;
82350;SPS30;71951;39.366;22.950;2023-08-21T02:32:36;10;;10;;;;;;;
82350;SPS30;71951;39.366;22.950;2023-08-21T02:36:03;9;;9;;;;;;;
82350;SPS30;71951;39.366;22.950;2023-08-21T02:39:30;10;;10;;;;;;;
82350;SPS30;71951;39.366;22.950;2023-08-21T02:42:56;9;;9;;;;;;;
82350;SPS30;71951;39.366;22.950;2023-08-21T02:46:23;9;;9;;;;;;;
82350;SPS30;71951;39.366;22.950;2023-08-21T02:49:49;9;;9;;;;;;;
82350;SPS30;71951;39.366;22.950;2023-08-21T02:53:16;9;;9;;;;;;;
82350;SPS30;71951;39.366;22.950;2023-08-21T02:56:42;9;;9;;;;;;;
82350;SPS30;71951;39.366;22.950;2023-08-21T03:00:09;8;;8;;;;;;;
82350;SPS30;71951;39.366;22.950;2023-08-21T03:03:36;9;;9;;;;;;;
82350;SPS30;71951;39.366;22.950;2023-08-21T03:07:03;9;;9;;;;;;;
82350;SPS30;71951;39.366;22.950;2023-08-21T03:10:29;9;;9;;;;;;;
82350;SPS30;71951;39.366;22.950;2023-08-21T03:13:56;9;;9;;;;;;;
82350;SPS30;71951;39.366;22.950;2023-08-21T03:17:23;10;;10;;;;;;;
82350;SPS30;71951;39.366;22.950;2023-08-21T03:20:50;9;;9;;;;;;;
82350;SPS30;71951;39.366;22.950;2023-08-21T03:24:16;9;;9;;;;;;;
82350;SPS30;71951;39.366;22.950;2023-08-21T03:27:43;8;;8;;;;;;;
82350;SPS30;71951;39.366;22.950;2023-08-21T03:31:09;9;;9;;;;;;;
82350;SPS30;71951;39.366;22.950;2023-08-21T03:34:36;10;;10;;;;;;;
82350;SPS30;71951;39.366;22.950;2023-08-21T03:38:02;9;;9;;;;;;;
82350;SPS30;71951;39.366;22.950;2023-08-21T03:41:29;9;;9;;;;;;;
82350;SPS30;71951;39.366;22.950;2023-08-21T03:44:56;9;;9;;;;;;;
82350;SPS30;71951;39.366;22.950;2023-08-21T03:48:22;10;;10;;;;;;;
82350;SPS30;71951;39.366;22.950;2023-08-21T03:51:49;10;;10;;;;;;;
82350;SPS30;71951;39.366;22.950;2023-08-21T03:55:15;10;;10;;;;;;;
82350;SPS30;71951;39.366;22.950;2023-08-21T03:58:42;9;;9;;;;;;;
82350;SPS30;71951;39.366;22.950;2023-08-21T04:02:08;10;;10;;;;;;;
82350;SPS30;71951;39.366;22.950;2023-08-21T04:05:35;11;;11;;;;;;;
82350;SPS30;71951;39.366;22.950;2023-08-21T04:09:01;10;;10;;;;;;;
82350;SPS30;71951;39.366;22.950;2023-08-21T04:12:28;10;;10;;;;;;;
82350;SPS30;71951;39.366;22.950;2023-08-21T04:15:54;10;;10;;;;;;;
82350;SPS30;71951;39.366;22.950;2023-08-21T04:19:21;10;;10;;;;;;;
82350;SPS30;71951;39.366;22.950;2023-08-21T04:22:47;10;;10;;;;;;;
82350;SPS30;71951;39.366;22.950;2023-08-21T04:26:14;9;;9;;;;;;;
82350;SPS30;71951;39.366;22.950;2023-08-21T04:29:41;9;;9;;;;;;;
82350;SPS30;71951;39.366;22.950;2023-08-21T04:33:08;9;;9;;;;;;;
82350;SPS30;71951;39.366;22.950;2023-08-21T04:36:34;10;;10;;;;;;;
82350;SPS30;71951;39.366;22.950;2023-08-21T04:40:01;9;;9;;;;;;;
82350;SPS30;71951;39.366;22.950;2023-08-21T04:43:27;9;;9;;;;;;;
82350;SPS30;71951;39.366;22.950;2023-08-21T04:46:54;9;;9;;;;;;;
82350;SPS30;71951;39.366;22.950;2023-08-21T04:50:20;9;;9;;;;;;;
82350;SPS30;71951;39.366;22.950;2023-08-21T04:53:47;9;;9;;;;;;;
82350;SPS30;71951;39.366;22.950;2023-08-21T04:57:13;8;;8;;;;;;;
82350;SPS30;71951;39.366;22.950;2023-08-21T05:00:40;8;;8;;;;;;;
82350;SPS30;71951;39.366;22.950;2023-08-21T05:04:06;9;;9;;;;;;;
82350;SPS30;71951;39.366;22.950;2023-08-21T05:07:33;8;;8;;;;;;;
82350;SPS30;71951;39.366;22.950;2023-08-21T05:11:00;10;;10;;;;;;;
82350;SPS30;71951;39.366;22.950;2023-08-21T05:14:27;9;;9;;;;;;;
82350;SPS30;71951;39.366;22.950;2023-08-21T05:17:54;9;;9;;;;;;;
82350;SPS30;71951;39.366;22.950;2023-08-21T05:21:20;8;;8;;;;;;;
82350;SPS30;71951;39.366;22.950;2023-08-21T05:24:47;8;;8;;;;;;;
82350;SPS30;71951;39.366;22.950;2023-08-21T05:28:14;8;;8;;;;;;;
82350;SPS30;71951;39.366;22.950;2023-08-21T05:31:40;8;;8;;;;;;;
82350;SPS30;71951;39.366;22.950;2023-08-21T05:35:07;8;;8;;;;;;;
82350;SPS30;71951;39.366;22.950;2023-08-21T05:38:34;7;;7;;;;;;;
82350;SPS30;71951;39.366;22.950;2023-08-21T05:42:00;8;;8;;;;;;;
82350;SPS30;71951;39.366;22.950;2023-08-21T05:45:27;8;;8;;;;;;;
82350;SPS30;71951;39.366;22.950;2023-08-21T05:48:54;8;;8;;;;;;;
82350;SPS30;71951;39.366;22.950;2023-08-21T05:52:20;7;;7;;;;;;;
82350;SPS30;71951;39.366;22.950;2023-08-21T05:55:47;7;;7;;;;;;;
82350;SPS30;71951;39.366;22.950;2023-08-21T05:59:23;7;;7;;;;;;;
82350;SPS30;71951;39.366;22.950;2023-08-21T06:02:52;8;;8;;;;;;;
82350;SPS30;71951;39.366;22.950;2023-08-21T06:06:19;7;;7;;;;;;;
82350;SPS30;71951;39.366;22.950;2023-08-21T06:09:45;6;;6;;;;;;;
82350;SPS30;71951;39.366;22.950;2023-08-21T06:13:12;6;;6;;;;;;;
82350;SPS30;71951;39.366;22.950;2023-08-21T06:16:38;7;;7;;;;;;;
82350;SPS30;71951;39.366;22.950;2023-08-21T06:20:06;7;;7;;;;;;;
82350;SPS30;71951;39.366;22.950;2023-08-21T06:23:33;7;;7;;;;;;;
82350;SPS30;71951;39.366;22.950;2023-08-21T06:26:59;7;;7;;;;;;;
82350;SPS30;71951;39.366;22.950;2023-08-21T06:30:26;6;;6;;;;;;;
82350;SPS30;71951;39.366;22.950;2023-08-21T06:33:53;6;;6;;;;;;;
82350;SPS30;71951;39.366;22.950;2023-08-21T06:37:20;6;;6;;;;;;;
82350;SPS30;71951;39.366;22.950;2023-08-21T06:40:46;6;;6;;;;;;;
82350;SPS30;71951;39.366;22.950;2023-08-21T06:44:13;7;;7;;;;;;;
82350;SPS30;71951;39.366;22.950;2023-08-21T06:47:40;6;;6;;;;;;;
82350;SPS30;71951;39.366;22.950;2023-08-21T06:51:07;6;;6;;;;;;;
82350;SPS30;71951;39.366;22.950;2023-08-21T06:54:33;6;;6;;;;;;;
82350;SPS30;71951;39.366;22.950;2023-08-21T06:58:00;6;;6;;;;;;;
82350;SPS30;71951;39.366;22.950;2023-08-21T07:01:26;6;;6;;;;;;;
82350;SPS30;71951;39.366;22.950;2023-08-21T07:04:53;6;;6;;;;;;;
82350;SPS30;71951;39.366;22.950;2023-08-21T07:08:19;6;;6;;;;;;;
82350;SPS30;71951;39.366;22.950;2023-08-21T07:11:46;7;;7;;;;;;;
82350;SPS30;71951;39.366;22.950;2023-08-21T07:15:12;7;;7;;;;;;;
82350;SPS30;71951;39.366;22.950;2023-08-21T07:18:39;7;;7;;;;;;;
82350;SPS30;71951;39.366;22.950;2023-08-21T07:22:06;7;;7;;;;;;;
82350;SPS30;71951;39.366;22.950;2023-08-21T07:25:32;7;;7;;;;;;;
82350;SPS30;71951;39.366;22.950;2023-08-21T07:28:59;7;;7;;;;;;;
82350;SPS30;71951;39.366;22.950;2023-08-21T07:32:26;6;;6;;;;;;;
82350;SPS30;71951;39.366;22.950;2023-08-21T07:36:00;6;;6;;;;;;;
82350;SPS30;71951;39.366;22.950;2023-08-21T07:39:27;7;;7;;;;;;;
82350;SPS30;71951;39.366;22.950;2023-08-21T07:42:54;6;;6;;;;;;;
82350;SPS30;71951;39.366;22.950;2023-08-21T07:46:20;7;;7;;;;;;;
82350;SPS30;71951;39.366;22.950;2023-08-21T07:49:47;6;;6;;;;;;;
82350;SPS30;71951;39.366;22.950;2023-08-21T07:53:13;6;;6;;;;;;;
82350;SPS30;71951;39.366;22.950;2023-08-21T07:56:40;6;;6;;;;;;;
82350;SPS30;71951;39.366;22.950;2023-08-21T08:00:07;6;;6;;;;;;;
82350;SPS30;71951;39.366;22.950;2023-08-21T08:03:33;5;;5;;;;;;;
82350;SPS30;71951;39.366;22.950;2023-08-21T08:07:00;7;;7;;;;;;;
82350;SPS30;71951;39.366;22.950;2023-08-21T08:10:26;6;;6;;;;;;;
82350;SPS30;71951;39.366;22.950;2023-08-21T08:13:53;6;;6;;;;;;;
82350;SPS30;71951;39.366;22.950;2023-08-21T08:17:19;6;;6;;;;;;;
82350;SPS30;71951;39.366;22.950;2023-08-21T08:20:46;6;;6;;;;;;;
82350;SPS30;71951;39.366;22.950;2023-08-21T08:24:12;6;;6;;;;;;;
82350;SPS30;71951;39.366;22.950;2023-08-21T08:27:39;6;;6;;;;;;;
82350;SPS30;71951;39.366;22.950;2023-08-21T08:31:06;6;;6;;;;;;;
82350;SPS30;71951;39.366;22.950;2023-08-21T08:34:32;5;;5;;;;;;;
82350;SPS30;71951;39.366;22.950;2023-08-21T08:37:58;6;;6;;;;;;;
82350;SPS30;71951;39.366;22.950;2023-08-21T08:41:25;6;;6;;;;;;;
82350;SPS30;71951;39.366;22.950;2023-08-21T08:44:56;5;;5;;;;;;;
82350;SPS30;71951;39.366;22.950;2023-08-21T08:48:25;6;;6;;;;;;;
82350;SPS30;71951;39.366;22.950;2023-08-21T08:51:51;6;;6;;;;;;;
82350;SPS30;71951;39.366;22.950;2023-08-21T08:55:20;6;;6;;;;;;;
82350;SPS30;71951;39.366;22.950;2023-08-21T08:58:46;7;;6;;;;;;;
82350;SPS30;71951;39.366;22.950;2023-08-21T09:02:14;7;;7;;;;;;;
82350;SPS30;71951;39.366;22.950;2023-08-21T09:05:41;6;;6;;;;;;;
82350;SPS30;71951;39.366;22.950;2023-08-21T09:09:08;5;;5;;;;;;;
82350;SPS30;71951;39.366;22.950;2023-08-21T09:12:35;5;;5;;;;;;;
82350;SPS30;71951;39.366;22.950;2023-08-21T09:16:03;5;;5;;;;;;;
82350;SPS30;71951;39.366;22.950;2023-08-21T09:19:31;5;;5;;;;;;;
82350;SPS30;71951;39.366;22.950;2023-08-21T09:22:58;6;;6;;;;;;;
82350;SPS30;71951;39.366;22.950;2023-08-21T09:26:25;6;;6;;;;;;;
82350;SPS30;71951;39.366;22.950;2023-08-21T09:33:55;5;;5;;;;;;;
82350;SPS30;71951;39.366;22.950;2023-08-21T09:37:23;5;;5;;;;;;;
82350;SPS30;71951;39.366;22.950;2023-08-21T09:40:55;4;;4;;;;;;;
82350;SPS30;71951;39.366;22.950;2023-08-21T09:44:22;4;;4;;;;;;;
82350;SPS30;71951;39.366;22.950;2023-08-21T09:47:48;3;;3;;;;;;;
82350;SPS30;71951;39.366;22.950;2023-08-21T09:51:15;5;;5;;;;;;;
82350;SPS30;71951;39.366;22.950;2023-08-21T09:54:42;6;;6;;;;;;;
82350;SPS30;71951;39.366;22.950;2023-08-21T09:58:08;3;;3;;;;;;;
82350;SPS30;71951;39.366;22.950;2023-08-21T10:01:35;4;;4;;;;;;;
82350;SPS30;71951;39.366;22.950;2023-08-21T10:05:04;4;;4;;;;;;;
82350;SPS30;71951;39.366;22.950;2023-08-21T10:08:30;4;;4;;;;;;;
82350;SPS30;71951;39.366;22.950;2023-08-21T10:11:59;4;;4;;;;;;;
82350;SPS30;71951;39.366;22.950;2023-08-21T10:15:27;4;;4;;;;;;;
82350;SPS30;71951;39.366;22.950;2023-08-21T10:18:54;4;;4;;;;;;;
82350;SPS30;71951;39.366;22.950;2023-08-21T10:22:38;4;;4;;;;;;;
82350;SPS30;71951;39.366;22.950;2023-08-21T10:26:06;4;;4;;;;;;;
82350;SPS30;71951;39.366;22.950;2023-08-21T10:29:33;4;;4;;;;;;;
82350;SPS30;71951;39.366;22.950;2023-08-21T10:33:00;4;;4;;;;;;;
82350;SPS30;71951;39.366;22.950;2023-08-21T10:40:22;3;;3;;;;;;;
82350;SPS30;71951;39.366;22.950;2023-08-21T10:43:49;3;;3;;;;;;;
82350;SPS30;71951;39.366;22.950;2023-08-21T10:51:11;3;;3;;;;;;;
82350;SPS30;71951;39.366;22.950;2023-08-21T10:54:46;4;;3;;;;;;;
82350;SPS30;71951;39.366;22.950;2023-08-21T10:58:13;3;;3;;;;;;;
82350;SPS30;71951;39.366;22.950;2023-08-21T11:01:42;3;;3;;;;;;;
82350;SPS30;71951;39.366;22.950;2023-08-21T11:05:10;4;;4;;;;;;;
82350;SPS30;71951;39.366;22.950;2023-08-21T11:08:37;3;;3;;;;;;;
82350;SPS30;71951;39.366;22.950;2023-08-21T11:12:05;4;;4;;;;;;;
82350;SPS30;71951;39.366;22.950;2023-08-21T11:15:32;4;;4;;;;;;;
82350;SPS30;71951;39.366;22.950;2023-08-21T11:19:02;3;;3;;;;;;;
82350;SPS30;71951;39.366;22.950;2023-08-21T11:22:31;3;;3;;;;;;;
82350;SPS30;71951;39.366;22.950;2023-08-21T11:25:58;3;;3;;;;;;;
82350;SPS30;71951;39.366;22.950;2023-08-21T11:29:24;3;;3;;;;;;;
82350;SPS30;71951;39.366;22.950;2023-08-21T11:36:27;3;;3;;;;;;;
82350;SPS30;71951;39.366;22.950;2023-08-21T11:39:55;2;;2;;;;;;;
82350;SPS30;71951;39.366;22.950;2023-08-21T11:43:33;2;;2;;;;;;;
82350;SPS30;71951;39.366;22.950;2023-08-21T11:47:00;3;;3;;;;;;;
82350;SPS30;71951;39.366;22.950;2023-08-21T11:50:27;2;;2;;;;;;;
82350;SPS30;71951;39.366;22.950;2023-08-21T11:53:54;2;;2;;;;;;;
82350;SPS30;71951;39.366;22.950;2023-08-21T11:57:21;2;;2;;;;;;;
82350;SPS30;71951;39.366;22.950;2023-08-21T12:00:48;2;;2;;;;;;;
82350;SPS30;71951;39.366;22.950;2023-08-21T12:04:14;2;;2;;;;;;;
82350;SPS30;71951;39.366;22.950;2023-08-21T12:07:41;2;;2;;;;;;;
82350;SPS30;71951;39.366;22.950;2023-08-21T12:11:23;2;;2;;;;;;;
82350;SPS30;71951;39.366;22.950;2023-08-21T12:14:49;2;;2;;;;;;;
82350;SPS30;71951;39.366;22.950;2023-08-21T12:18:16;3;;3;;;;;;;
82350;SPS30;71951;39.366;22.950;2023-08-21T12:21:42;4;;4;;;;;;;
82350;SPS30;71951;39.366;22.950;2023-08-21T12:25:09;3;;3;;;;;;;
82350;SPS30;71951;39.366;22.950;2023-08-21T12:28:36;3;;3;;;;;;;
82350;SPS30;71951;39.366;22.950;2023-08-21T12:32:18;3;;3;;;;;;;
82350;SPS30;71951;39.366;22.950;2023-08-21T12:35:44;3;;3;;;;;;;
82350;SPS30;71951;39.366;22.950;2023-08-21T12:39:11;3;;3;;;;;;;
82350;SPS30;71951;39.366;22.950;2023-08-21T12:42:37;3;;3;;;;;;;
82350;SPS30;71951;39.366;22.950;2023-08-21T12:46:05;3;;3;;;;;;;
82350;SPS30;71951;39.366;22.950;2023-08-21T12:49:31;3;;3;;;;;;;
82350;SPS30;71951;39.366;22.950;2023-08-21T12:52:58;3;;3;;;;;;;
82350;SPS30;71951;39.366;22.950;2023-08-21T12:56:24;3;;3;;;;;;;
82350;SPS30;71951;39.366;22.950;2023-08-21T12:59:51;3;;3;;;;;;;
82350;SPS30;71951;39.366;22.950;2023-08-21T13:03:18;5;;5;;;;;;;
82350;SPS30;71951;39.366;22.950;2023-08-21T13:06:44;4;;4;;;;;;;
82350;SPS30;71951;39.366;22.950;2023-08-21T13:10:10;4;;4;;;;;;;
82350;SPS30;71951;39.366;22.950;2023-08-21T13:13:37;4;;4;;;;;;;
82350;SPS30;71951;39.366;22.950;2023-08-21T13:17:03;5;;5;;;;;;;
82350;SPS30;71951;39.366;22.950;2023-08-21T13:20:30;7;;7;;;;;;;
82350;SPS30;71951;39.366;22.950;2023-08-21T13:23:56;5;;5;;;;;;;
82350;SPS30;71951;39.366;22.950;2023-08-21T13:27:23;5;;5;;;;;;;
82350;SPS30;71951;39.366;22.950;2023-08-21T13:30:52;4;;4;;;;;;;
82350;SPS30;71951;39.366;22.950;2023-08-21T13:34:18;4;;4;;;;;;;
82350;SPS30;71951;39.366;22.950;2023-08-21T13:37:45;4;;4;;;;;;;
82350;SPS30;71951;39.366;22.950;2023-08-21T13:41:11;4;;4;;;;;;;
82350;SPS30;71951;39.366;22.950;2023-08-21T13:44:38;4;;4;;;;;;;
82350;SPS30;71951;39.366;22.950;2023-08-21T13:48:05;4;;4;;;;;;;
82350;SPS30;71951;39.366;22.950;2023-08-21T13:51:31;3;;3;;;;;;;
82350;SPS30;71951;39.366;22.950;2023-08-21T13:54:58;4;;4;;;;;;;
82350;SPS30;71951;39.366;22.950;2023-08-21T13:58:25;3;;3;;;;;;;
82350;SPS30;71951;39.366;22.950;2023-08-21T14:01:51;4;;4;;;;;;;
82350;SPS30;71951;39.366;22.950;2023-08-21T14:05:18;3;;3;;;;;;;
82350;SPS30;71951;39.366;22.950;2023-08-21T14:12:40;3;;3;;;;;;;
82350;SPS30;71951;39.366;22.950;2023-08-21T14:20:03;3;;3;;;;;;;
82350;SPS30;71951;39.366;22.950;2023-08-21T14:23:30;3;;3;;;;;;;
82350;SPS30;71951;39.366;22.950;2023-08-21T14:26:56;4;;4;;;;;;;
82350;SPS30;71951;39.366;22.950;2023-08-21T14:30:23;4;;4;;;;;;;
82350;SPS30;71951;39.366;22.950;2023-08-21T14:33:49;3;;3;;;;;;;
82350;SPS30;71951;39.366;22.950;2023-08-21T14:37:16;4;;4;;;;;;;
82350;SPS30;71951;39.366;22.950;2023-08-21T14:40:42;4;;4;;;;;;;
82350;SPS30;71951;39.366;22.950;2023-08-21T14:44:09;3;;3;;;;;;;
82350;SPS30;71951;39.366;22.950;2023-08-21T14:47:36;4;;4;;;;;;;
82350;SPS30;71951;39.366;22.950;2023-08-21T14:51:03;3;;3;;;;;;;
82350;SPS30;71951;39.366;22.950;2023-08-21T14:54:30;4;;4;;;;;;;
82350;SPS30;71951;39.366;22.950;2023-08-21T14:57:59;4;;4;;;;;;;
82350;SPS30;71951;39.366;22.950;2023-08-21T15:01:47;3;;3;;;;;;;
82350;SPS30;71951;39.366;22.950;2023-08-21T15:09:10;5;;5;;;;;;;
82350;SPS30;71951;39.366;22.950;2023-08-21T15:12:36;3;;3;;;;;;;
82350;SPS30;71951;39.366;22.950;2023-08-21T15:16:03;4;;4;;;;;;;
82350;SPS30;71951;39.366;22.950;2023-08-21T15:19:31;4;;4;;;;;;;
82350;SPS30;71951;39.366;22.950;2023-08-21T15:23:16;4;;4;;;;;;;
82350;SPS30;71951;39.366;22.950;2023-08-21T15:30:38;5;;5;;;;;;;
82350;SPS30;71951;39.366;22.950;2023-08-21T15:34:04;4;;4;;;;;;;
82350;SPS30;71951;39.366;22.950;2023-08-21T15:37:31;4;;4;;;;;;;
82350;SPS30;71951;39.366;22.950;2023-08-21T15:40:57;4;;4;;;;;;;
82350;SPS30;71951;39.366;22.950;2023-08-21T15:44:24;4;;4;;;;;;;
82350;SPS30;71951;39.366;22.950;2023-08-21T15:47:50;4;;4;;;;;;;
82350;SPS30;71951;39.366;22.950;2023-08-21T15:51:17;5;;5;;;;;;;
82350;SPS30;71951;39.366;22.950;2023-08-21T15:54:43;4;;4;;;;;;;
82350;SPS30;71951;39.366;22.950;2023-08-21T16:02:05;5;;5;;;;;;;
82350;SPS30;71951;39.366;22.950;2023-08-21T16:05:32;5;;5;;;;;;;
82350;SPS30;71951;39.366;22.950;2023-08-21T16:08:59;7;;7;;;;;;;
82350;SPS30;71951;39.366;22.950;2023-08-21T16:12:25;7;;7;;;;;;;
82350;SPS30;71951;39.366;22.950;2023-08-21T16:15:51;5;;5;;;;;;;
82350;SPS30;71951;39.366;22.950;2023-08-21T16:19:18;5;;5;;;;;;;
82350;SPS30;71951;39.366;22.950;2023-08-21T16:22:45;5;;5;;;;;;;
82350;SPS30;71951;39.366;22.950;2023-08-21T16:26:11;6;;6;;;;;;;
82350;SPS30;71951;39.366;22.950;2023-08-21T16:29:38;6;;6;;;;;;;
82350;SPS30;71951;39.366;22.950;2023-08-21T16:33:05;5;;5;;;;;;;
82350;SPS30;71951;39.366;22.950;2023-08-21T16:36:31;5;;5;;;;;;;
82350;SPS30;71951;39.366;22.950;2023-08-21T16:39:58;5;;5;;;;;;;
82350;SPS30;71951;39.366;22.950;2023-08-21T16:43:24;7;;7;;;;;;;
82350;SPS30;71951;39.366;22.950;2023-08-21T16:46:51;4;;4;;;;;;;
82350;SPS30;71951;39.366;22.950;2023-08-21T16:50:18;5;;5;;;;;;;
82350;SPS30;71951;39.366;22.950;2023-08-21T16:53:44;5;;5;;;;;;;
82350;SPS30;71951;39.366;22.950;2023-08-21T16:57:11;6;;6;;;;;;;
82350;SPS30;71951;39.366;22.950;2023-08-21T17:00:39;12;;12;;;;;;;
82350;SPS30;71951;39.366;22.950;2023-08-21T17:04:05;7;;7;;;;;;;
82350;SPS30;71951;39.366;22.950;2023-08-21T17:07:32;5;;5;;;;;;;
82350;SPS30;71951;39.366;22.950;2023-08-21T17:10:58;5;;5;;;;;;;
82350;SPS30;71951;39.366;22.950;2023-08-21T17:14:25;5;;5;;;;;;;
82350;SPS30;71951;39.366;22.950;2023-08-21T17:17:51;5;;5;;;;;;;
82350;SPS30;71951;39.366;22.950;2023-08-21T17:21:21;5;;5;;;;;;;
82350;SPS30;71951;39.366;22.950;2023-08-21T17:24:47;5;;5;;;;;;;
82350;SPS30;71951;39.366;22.950;2023-08-21T17:28:14;5;;5;;;;;;;
82350;SPS30;71951;39.366;22.950;2023-08-21T17:31:40;4;;4;;;;;;;
82350;SPS30;71951;39.366;22.950;2023-08-21T17:35:07;5;;5;;;;;;;
82350;SPS30;71951;39.366;22.950;2023-08-21T17:38:34;5;;5;;;;;;;
82350;SPS30;71951;39.366;22.950;2023-08-21T17:42:00;5;;5;;;;;;;
82350;SPS30;71951;39.366;22.950;2023-08-21T17:45:27;6;;6;;;;;;;
82350;SPS30;71951;39.366;22.950;2023-08-21T17:48:53;6;;6;;;;;;;
82350;SPS30;71951;39.366;22.950;2023-08-21T17:52:20;6;;6;;;;;;;
82350;SPS30;71951;39.366;22.950;2023-08-21T17:55:46;6;;6;;;;;;;
82350;SPS30;71951;39.366;22.950;2023-08-21T17:59:13;6;;6;;;;;;;
82350;SPS30;71951;39.366;22.950;2023-08-21T18:02:39;6;;6;;;;;;;
82350;SPS30;71951;39.366;22.950;2023-08-21T18:06:06;7;;7;;;;;;;
82350;SPS30;71951;39.366;22.950;2023-08-21T18:09:32;7;;7;;;;;;;
82350;SPS30;71951;39.366;22.950;2023-08-21T18:12:59;8;;8;;;;;;;
82350;SPS30;71951;39.366;22.950;2023-08-21T18:16:26;8;;8;;;;;;;
82350;SPS30;71951;39.366;22.950;2023-08-21T18:19:52;9;;9;;;;;;;
82350;SPS30;71951;39.366;22.950;2023-08-21T18:23:20;7;;7;;;;;;;
82350;SPS30;71951;39.366;22.950;2023-08-21T18:26:48;8;;7;;;;;;;
82350;SPS30;71951;39.366;22.950;2023-08-21T18:30:17;8;;8;;;;;;;
82350;SPS30;71951;39.366;22.950;2023-08-21T18:33:44;8;;8;;;;;;;
82350;SPS30;71951;39.366;22.950;2023-08-21T18:37:11;9;;9;;;;;;;
82350;SPS30;71951;39.366;22.950;2023-08-21T18:40:38;7;;7;;;;;;;
82350;SPS30;71951;39.366;22.950;2023-08-21T18:44:04;8;;8;;;;;;;
82350;SPS30;71951;39.366;22.950;2023-08-21T18:47:31;7;;7;;;;;;;
82350;SPS30;71951;39.366;22.950;2023-08-21T18:50:57;7;;7;;;;;;;
82350;SPS30;71951;39.366;22.950;2023-08-21T18:54:24;8;;8;;;;;;;
82350;SPS30;71951;39.366;22.950;2023-08-21T18:57:51;9;;9;;;;;;;
82350;SPS30;71951;39.366;22.950;2023-08-21T19:01:17;7;;7;;;;;;;
82350;SPS30;71951;39.366;22.950;2023-08-21T19:04:44;7;;7;;;;;;;
82350;SPS30;71951;39.366;22.950;2023-08-21T19:08:10;8;;8;;;;;;;
82350;SPS30;71951;39.366;22.950;2023-08-21T19:11:37;8;;8;;;;;;;
82350;SPS30;71951;39.366;22.950;2023-08-21T19:15:04;7;;7;;;;;;;
82350;SPS30;71951;39.366;22.950;2023-08-21T19:18:31;7;;7;;;;;;;
82350;SPS30;71951;39.366;22.950;2023-08-21T19:21:58;7;;7;;;;;;;
82350;SPS30;71951;39.366;22.950;2023-08-21T19:25:24;9;;9;;;;;;;
82350;SPS30;71951;39.366;22.950;2023-08-21T19:28:51;8;;7;;;;;;;
82350;SPS30;71951;39.366;22.950;2023-08-21T19:32:17;12;;12;;;;;;;
82350;SPS30;71951;39.366;22.950;2023-08-21T19:35:44;14;;13;;;;;;;
82350;SPS30;71951;39.366;22.950;2023-08-21T19:39:10;10;;10;;;;;;;
82350;SPS30;71951;39.366;22.950;2023-08-21T19:42:37;9;;9;;;;;;;
82350;SPS30;71951;39.366;22.950;2023-08-21T19:46:04;9;;9;;;;;;;
82350;SPS30;71951;39.366;22.950;2023-08-21T19:49:30;9;;9;;;;;;;
82350;SPS30;71951;39.366;22.950;2023-08-21T19:52:57;8;;8;;;;;;;
82350;SPS30;71951;39.366;22.950;2023-08-21T19:56:24;9;;8;;;;;;;
82350;SPS30;71951;39.366;22.950;2023-08-21T19:59:52;7;;7;;;;;;;
82350;SPS30;71951;39.366;22.950;2023-08-21T20:03:18;7;;7;;;;;;;
82350;SPS30;71951;39.366;22.950;2023-08-21T20:06:45;7;;7;;;;;;;
82350;SPS30;71951;39.366;22.950;2023-08-21T20:10:12;8;;8;;;;;;;
82350;SPS30;71951;39.366;22.950;2023-08-21T20:13:38;7;;6;;;;;;;
82350;SPS30;71951;39.366;22.950;2023-08-21T20:17:05;7;;7;;;;;;;
82350;SPS30;71951;39.366;22.950;2023-08-21T20:20:31;7;;7;;;;;;;
82350;SPS30;71951;39.366;22.950;2023-08-21T20:23:58;7;;7;;;;;;;
82350;SPS30;71951;39.366;22.950;2023-08-21T20:27:24;8;;8;;;;;;;
82350;SPS30;71951;39.366;22.950;2023-08-21T20:30:51;7;;7;;;;;;;
82350;SPS30;71951;39.366;22.950;2023-08-21T20:34:17;9;;9;;;;;;;
82350;SPS30;71951;39.366;22.950;2023-08-21T20:37:44;10;;10;;;;;;;
82350;SPS30;71951;39.366;22.950;2023-08-21T20:41:10;10;;10;;;;;;;
82350;SPS30;71951;39.366;22.950;2023-08-21T20:44:37;10;;10;;;;;;;
82350;SPS30;71951;39.366;22.950;2023-08-21T20:48:04;10;;10;;;;;;;
82350;SPS30;71951;39.366;22.950;2023-08-21T20:51:30;9;;9;;;;;;;
82350;SPS30;71951;39.366;22.950;2023-08-21T20:54:57;9;;9;;;;;;;
82350;SPS30;71951;39.366;22.950;2023-08-21T20:58:23;8;;8;;;;;;;
82350;SPS30;71951;39.366;22.950;2023-08-21T21:01:50;6;;6;;;;;;;
82350;SPS30;71951;39.366;22.950;2023-08-21T21:05:16;4;;4;;;;;;;
82350;SPS30;71951;39.366;22.950;2023-08-21T21:08:43;4;;4;;;;;;;
82350;SPS30;71951;39.366;22.950;2023-08-21T21:12:09;7;;7;;;;;;;
82350;SPS30;71951;39.366;22.950;2023-08-21T21:15:36;6;;6;;;;;;;
82350;SPS30;71951;39.366;22.950;2023-08-21T21:19:02;7;;7;;;;;;;
82350;SPS30;71951;39.366;22.950;2023-08-21T21:22:29;6;;6;;;;;;;
82350;SPS30;71951;39.366;22.950;2023-08-21T21:25:58;7;;7;;;;;;;
82350;SPS30;71951;39.366;22.950;2023-08-21T21:29:25;6;;6;;;;;;;
82350;SPS30;71951;39.366;22.950;2023-08-21T21:32:51;8;;8;;;;;;;
82350;SPS30;71951;39.366;22.950;2023-08-21T21:36:18;6;;6;;;;;;;
82350;SPS30;71951;39.366;22.950;2023-08-21T21:39:44;6;;6;;;;;;;
82350;SPS30;71951;39.366;22.950;2023-08-21T21:43:11;6;;6;;;;;;;
82350;SPS30;71951;39.366;22.950;2023-08-21T21:46:38;7;;6;;;;;;;
82350;SPS30;71951;39.366;22.950;2023-08-21T21:50:05;6;;6;;;;;;;
82350;SPS30;71951;39.366;22.950;2023-08-21T21:53:32;7;;7;;;;;;;